sensor_id;sensor_type;location;lat;lon;timestamp;temperature;humidity
16964;DHT22;8598;50.508;10.436;2022-10-23T00:01:48;8.60;99.90
16964;DHT22;8598;50.508;10.436;2022-10-23T00:04:17;8.70;99.90
16964;DHT22;8598;50.508;10.436;2022-10-23T00:06:45;8.70;99.90
16964;DHT22;8598;50.508;10.436;2022-10-23T00:09:14;8.80;99.90
16964;DHT22;8598;50.508;10.436;2022-10-23T00:11:42;9.30;99.90
16964;DHT22;8598;50.508;10.436;2022-10-23T00:14:13;9.10;99.90
16964;DHT22;8598;50.508;10.436;2022-10-23T00:16:41;8.80;99.90
16964;DHT22;8598;50.508;10.436;2022-10-23T00:19:08;8.80;99.90
16964;DHT22;8598;50.508;10.436;2022-10-23T00:21:35;8.90;99.90
16964;DHT22;8598;50.508;10.436;2022-10-23T00:24:02;8.80;99.90
16964;DHT22;8598;50.508;10.436;2022-10-23T00:26:29;8.80;99.90
16964;DHT22;8598;50.508;10.436;2022-10-23T00:28:56;9.10;99.90
16964;DHT22;8598;50.508;10.436;2022-10-23T00:31:24;8.90;99.90
16964;DHT22;8598;50.508;10.436;2022-10-23T00:33:52;9.20;99.90
16964;DHT22;8598;50.508;10.436;2022-10-23T00:36:20;9.40;99.90
16964;DHT22;8598;50.508;10.436;2022-10-23T00:38:48;9.80;99.90
16964;DHT22;8598;50.508;10.436;2022-10-23T00:41:19;10.20;99.90
16964;DHT22;8598;50.508;10.436;2022-10-23T00:44:02;9.30;99.90
16964;DHT22;8598;50.508;10.436;2022-10-23T00:46:30;8.80;99.90
16964;DHT22;8598;50.508;10.436;2022-10-23T00:48:59;9.20;99.90
16964;DHT22;8598;50.508;10.436;2022-10-23T00:51:29;9.60;99.90
16964;DHT22;8598;50.508;10.436;2022-10-23T00:53:58;8.80;99.90
16964;DHT22;8598;50.508;10.436;2022-10-23T00:56:26;9.00;99.90
16964;DHT22;8598;50.508;10.436;2022-10-23T00:58:53;9.20;99.90
16964;DHT22;8598;50.508;10.436;2022-10-23T01:01:21;9.70;99.90
16964;DHT22;8598;50.508;10.436;2022-10-23T01:03:49;8.70;99.90
16964;DHT22;8598;50.508;10.436;2022-10-23T01:06:25;8.70;99.90
16964;DHT22;8598;50.508;10.436;2022-10-23T01:08:56;9.90;99.90
16964;DHT22;8598;50.508;10.436;2022-10-23T01:11:27;8.80;99.90
16964;DHT22;8598;50.508;10.436;2022-10-23T01:14:01;8.70;99.90
16964;DHT22;8598;50.508;10.436;2022-10-23T01:16:34;8.70;99.90
16964;DHT22;8598;50.508;10.436;2022-10-23T01:19:12;9.10;99.90
16964;DHT22;8598;50.508;10.436;2022-10-23T01:21:52;8.70;99.90
16964;DHT22;8598;50.508;10.436;2022-10-23T01:24:34;8.70;99.90
16964;DHT22;8598;50.508;10.436;2022-10-23T01:27:16;8.80;99.90
16964;DHT22;8598;50.508;10.436;2022-10-23T01:29:45;8.80;99.90
16964;DHT22;8598;50.508;10.436;2022-10-23T01:32:16;8.80;99.90
16964;DHT22;8598;50.508;10.436;2022-10-23T01:34:47;8.80;99.90
16964;DHT22;8598;50.508;10.436;2022-10-23T01:37:22;9.90;99.90
16964;DHT22;8598;50.508;10.436;2022-10-23T01:39:53;8.80;99.90
16964;DHT22;8598;50.508;10.436;2022-10-23T01:42:25;8.80;99.90
16964;DHT22;8598;50.508;10.436;2022-10-23T01:44:58;8.80;99.90
16964;DHT22;8598;50.508;10.436;2022-10-23T01:47:29;8.80;99.90
16964;DHT22;8598;50.508;10.436;2022-10-23T01:49:57;8.80;99.90
16964;DHT22;8598;50.508;10.436;2022-10-23T01:52:25;8.80;99.90
16964;DHT22;8598;50.508;10.436;2022-10-23T01:54:55;9.40;99.90
16964;DHT22;8598;50.508;10.436;2022-10-23T01:57:26;10.20;99.90
16964;DHT22;8598;50.508;10.436;2022-10-23T01:59:57;8.70;99.90
16964;DHT22;8598;50.508;10.436;2022-10-23T02:02:25;8.70;99.90
16964;DHT22;8598;50.508;10.436;2022-10-23T02:04:58;10.60;99.90
16964;DHT22;8598;50.508;10.436;2022-10-23T02:07:26;8.60;99.90
16964;DHT22;8598;50.508;10.436;2022-10-23T02:09:53;9.30;99.90
16964;DHT22;8598;50.508;10.436;2022-10-23T02:12:28;8.70;99.90
16964;DHT22;8598;50.508;10.436;2022-10-23T02:14:58;8.70;99.90
16964;DHT22;8598;50.508;10.436;2022-10-23T02:17:32;8.70;99.90
16964;DHT22;8598;50.508;10.436;2022-10-23T02:20:16;8.70;99.90
16964;DHT22;8598;50.508;10.436;2022-10-23T02:22:51;8.60;99.90
16964;DHT22;8598;50.508;10.436;2022-10-23T02:25:25;8.70;99.90
16964;DHT22;8598;50.508;10.436;2022-10-23T02:27:55;8.50;99.90
16964;DHT22;8598;50.508;10.436;2022-10-23T02:30:26;8.40;99.90
16964;DHT22;8598;50.508;10.436;2022-10-23T02:32:55;9.50;99.90
16964;DHT22;8598;50.508;10.436;2022-10-23T02:35:23;8.80;99.90
16964;DHT22;8598;50.508;10.436;2022-10-23T02:37:54;8.40;99.90
16964;DHT22;8598;50.508;10.436;2022-10-23T02:40:23;8.40;99.90
16964;DHT22;8598;50.508;10.436;2022-10-23T02:42:56;10.60;99.90
16964;DHT22;8598;50.508;10.436;2022-10-23T02:45:29;8.50;99.90
16964;DHT22;8598;50.508;10.436;2022-10-23T02:48:01;8.40;99.90
16964;DHT22;8598;50.508;10.436;2022-10-23T02:50:36;8.50;99.90
16964;DHT22;8598;50.508;10.436;2022-10-23T02:53:08;8.40;99.90
16964;DHT22;8598;50.508;10.436;2022-10-23T02:55:44;8.40;99.90
16964;DHT22;8598;50.508;10.436;2022-10-23T02:58:21;8.40;99.90
16964;DHT22;8598;50.508;10.436;2022-10-23T03:00:52;9.20;99.90
16964;DHT22;8598;50.508;10.436;2022-10-23T03:03:26;8.40;99.90
16964;DHT22;8598;50.508;10.436;2022-10-23T03:05:53;8.30;99.90
16964;DHT22;8598;50.508;10.436;2022-10-23T03:08:21;8.40;99.90
16964;DHT22;8598;50.508;10.436;2022-10-23T03:10:47;8.30;99.90
16964;DHT22;8598;50.508;10.436;2022-10-23T03:13:17;8.40;99.90
16964;DHT22;8598;50.508;10.436;2022-10-23T03:15:44;8.40;99.90
16964;DHT22;8598;50.508;10.436;2022-10-23T03:18:10;8.40;99.90
16964;DHT22;8598;50.508;10.436;2022-10-23T03:20:37;9.10;99.90
16964;DHT22;8598;50.508;10.436;2022-10-23T03:23:04;8.40;99.90
16964;DHT22;8598;50.508;10.436;2022-10-23T03:25:31;8.30;99.90
16964;DHT22;8598;50.508;10.436;2022-10-23T03:27:58;8.60;99.90
16964;DHT22;8598;50.508;10.436;2022-10-23T03:30:26;8.40;99.90
16964;DHT22;8598;50.508;10.436;2022-10-23T03:32:53;8.30;99.90
16964;DHT22;8598;50.508;10.436;2022-10-23T03:35:19;10.50;99.90
16964;DHT22;8598;50.508;10.436;2022-10-23T03:37:46;8.50;99.90
16964;DHT22;8598;50.508;10.436;2022-10-23T03:40:13;8.30;99.90
16964;DHT22;8598;50.508;10.436;2022-10-23T03:42:40;8.20;99.90
16964;DHT22;8598;50.508;10.436;2022-10-23T03:45:08;8.40;99.90
16964;DHT22;8598;50.508;10.436;2022-10-23T03:47:36;8.20;99.90
16964;DHT22;8598;50.508;10.436;2022-10-23T03:50:06;8.30;99.90
16964;DHT22;8598;50.508;10.436;2022-10-23T03:52:33;8.20;99.90
16964;DHT22;8598;50.508;10.436;2022-10-23T03:55:00;8.20;99.90
16964;DHT22;8598;50.508;10.436;2022-10-23T03:57:27;9.20;99.90
16964;DHT22;8598;50.508;10.436;2022-10-23T03:59:53;8.20;99.90
16964;DHT22;8598;50.508;10.436;2022-10-23T04:02:20;8.20;99.90
16964;DHT22;8598;50.508;10.436;2022-10-23T04:04:48;8.20;99.90
16964;DHT22;8598;50.508;10.436;2022-10-23T04:07:15;8.50;99.90
16964;DHT22;8598;50.508;10.436;2022-10-23T04:09:42;8.00;99.90
16964;DHT22;8598;50.508;10.436;2022-10-23T04:12:09;8.80;99.90
16964;DHT22;8598;50.508;10.436;2022-10-23T04:14:36;8.10;99.90
16964;DHT22;8598;50.508;10.436;2022-10-23T04:17:03;8.10;99.90
16964;DHT22;8598;50.508;10.436;2022-10-23T04:19:29;8.10;99.90
16964;DHT22;8598;50.508;10.436;2022-10-23T04:21:58;8.10;99.90
16964;DHT22;8598;50.508;10.436;2022-10-23T04:24:25;8.90;99.90
16964;DHT22;8598;50.508;10.436;2022-10-23T04:26:52;8.30;99.90
16964;DHT22;8598;50.508;10.436;2022-10-23T04:29:20;8.10;99.90
16964;DHT22;8598;50.508;10.436;2022-10-23T04:31:49;8.20;99.90
16964;DHT22;8598;50.508;10.436;2022-10-23T04:34:17;9.10;99.90
16964;DHT22;8598;50.508;10.436;2022-10-23T04:36:43;9.10;99.90
16964;DHT22;8598;50.508;10.436;2022-10-23T04:39:12;8.10;99.90
16964;DHT22;8598;50.508;10.436;2022-10-23T04:41:39;8.20;99.90
16964;DHT22;8598;50.508;10.436;2022-10-23T04:44:06;8.00;99.90
16964;DHT22;8598;50.508;10.436;2022-10-23T04:46:33;8.00;99.90
16964;DHT22;8598;50.508;10.436;2022-10-23T04:49:00;9.40;99.90
16964;DHT22;8598;50.508;10.436;2022-10-23T04:51:27;9.20;99.90
16964;DHT22;8598;50.508;10.436;2022-10-23T04:53:53;8.70;99.90
16964;DHT22;8598;50.508;10.436;2022-10-23T04:56:21;7.80;99.90
16964;DHT22;8598;50.508;10.436;2022-10-23T04:58:48;7.80;99.90
16964;DHT22;8598;50.508;10.436;2022-10-23T05:01:16;9.30;99.90
16964;DHT22;8598;50.508;10.436;2022-10-23T05:03:44;7.90;99.90
16964;DHT22;8598;50.508;10.436;2022-10-23T05:06:11;8.80;99.90
16964;DHT22;8598;50.508;10.436;2022-10-23T05:08:38;7.90;99.90
16964;DHT22;8598;50.508;10.436;2022-10-23T05:11:04;8.30;99.90
16964;DHT22;8598;50.508;10.436;2022-10-23T05:13:32;7.70;99.90
16964;DHT22;8598;50.508;10.436;2022-10-23T05:15:59;7.70;99.90
16964;DHT22;8598;50.508;10.436;2022-10-23T05:18:29;7.70;99.90
16964;DHT22;8598;50.508;10.436;2022-10-23T05:21:00;7.70;99.90
16964;DHT22;8598;50.508;10.436;2022-10-23T05:23:29;7.60;99.90
16964;DHT22;8598;50.508;10.436;2022-10-23T05:25:57;7.60;99.90
16964;DHT22;8598;50.508;10.436;2022-10-23T05:28:24;7.80;99.90
16964;DHT22;8598;50.508;10.436;2022-10-23T05:30:53;8.80;99.90
16964;DHT22;8598;50.508;10.436;2022-10-23T05:33:19;8.20;99.90
16964;DHT22;8598;50.508;10.436;2022-10-23T05:35:46;7.70;99.90
16964;DHT22;8598;50.508;10.436;2022-10-23T05:38:13;7.90;99.90
16964;DHT22;8598;50.508;10.436;2022-10-23T05:40:41;7.60;99.90
16964;DHT22;8598;50.508;10.436;2022-10-23T05:43:08;7.60;99.90
16964;DHT22;8598;50.508;10.436;2022-10-23T05:45:34;8.50;99.90
16964;DHT22;8598;50.508;10.436;2022-10-23T05:48:03;8.30;99.90
16964;DHT22;8598;50.508;10.436;2022-10-23T05:50:30;7.50;99.90
16964;DHT22;8598;50.508;10.436;2022-10-23T05:52:57;8.40;99.90
16964;DHT22;8598;50.508;10.436;2022-10-23T05:55:24;7.40;99.90
16964;DHT22;8598;50.508;10.436;2022-10-23T05:57:51;7.40;99.90
16964;DHT22;8598;50.508;10.436;2022-10-23T06:00:18;7.40;99.90
16964;DHT22;8598;50.508;10.436;2022-10-23T06:02:45;7.40;99.90
16964;DHT22;8598;50.508;10.436;2022-10-23T06:05:13;7.90;99.90
16964;DHT22;8598;50.508;10.436;2022-10-23T06:07:40;7.40;99.90
16964;DHT22;8598;50.508;10.436;2022-10-23T06:10:07;7.50;99.90
16964;DHT22;8598;50.508;10.436;2022-10-23T06:12:34;7.40;99.90
16964;DHT22;8598;50.508;10.436;2022-10-23T06:15:01;7.40;99.90
16964;DHT22;8598;50.508;10.436;2022-10-23T06:17:28;7.40;99.90
16964;DHT22;8598;50.508;10.436;2022-10-23T06:19:55;8.60;99.90
16964;DHT22;8598;50.508;10.436;2022-10-23T06:22:27;7.40;99.90
16964;DHT22;8598;50.508;10.436;2022-10-23T06:24:54;8.50;99.90
16964;DHT22;8598;50.508;10.436;2022-10-23T06:27:21;8.00;99.90
16964;DHT22;8598;50.508;10.436;2022-10-23T06:29:48;8.30;99.90
16964;DHT22;8598;50.508;10.436;2022-10-23T06:32:15;7.30;99.90
16964;DHT22;8598;50.508;10.436;2022-10-23T06:34:43;9.00;99.90
16964;DHT22;8598;50.508;10.436;2022-10-23T06:37:09;7.40;99.90
16964;DHT22;8598;50.508;10.436;2022-10-23T06:39:38;7.40;99.90
16964;DHT22;8598;50.508;10.436;2022-10-23T06:42:05;7.70;99.90
16964;DHT22;8598;50.508;10.436;2022-10-23T06:44:32;8.20;99.90
16964;DHT22;8598;50.508;10.436;2022-10-23T06:46:59;7.40;99.90
16964;DHT22;8598;50.508;10.436;2022-10-23T06:49:26;7.50;99.90
16964;DHT22;8598;50.508;10.436;2022-10-23T06:51:53;8.90;99.90
16964;DHT22;8598;50.508;10.436;2022-10-23T06:54:20;8.00;99.90
16964;DHT22;8598;50.508;10.436;2022-10-23T06:56:48;7.50;99.90
16964;DHT22;8598;50.508;10.436;2022-10-23T06:59:15;7.60;99.90
16964;DHT22;8598;50.508;10.436;2022-10-23T07:01:41;7.80;99.90
16964;DHT22;8598;50.508;10.436;2022-10-23T07:04:08;7.80;99.90
16964;DHT22;8598;50.508;10.436;2022-10-23T07:06:38;7.90;99.90
16964;DHT22;8598;50.508;10.436;2022-10-23T07:09:05;9.30;99.90
16964;DHT22;8598;50.508;10.436;2022-10-23T07:11:32;7.30;99.90
16964;DHT22;8598;50.508;10.436;2022-10-23T07:14:00;7.80;99.90
16964;DHT22;8598;50.508;10.436;2022-10-23T07:16:27;8.70;99.90
16964;DHT22;8598;50.508;10.436;2022-10-23T07:18:55;9.10;99.90
16964;DHT22;8598;50.508;10.436;2022-10-23T07:21:24;9.30;99.90
16964;DHT22;8598;50.508;10.436;2022-10-23T07:23:51;8.00;99.90
16964;DHT22;8598;50.508;10.436;2022-10-23T07:26:18;8.20;99.90
16964;DHT22;8598;50.508;10.436;2022-10-23T07:28:47;9.10;99.90
16964;DHT22;8598;50.508;10.436;2022-10-23T07:31:17;9.30;99.90
16964;DHT22;8598;50.508;10.436;2022-10-23T07:33:44;9.30;99.90
16964;DHT22;8598;50.508;10.436;2022-10-23T07:36:10;8.80;99.90
16964;DHT22;8598;50.508;10.436;2022-10-23T07:38:38;11.00;99.90
16964;DHT22;8598;50.508;10.436;2022-10-23T07:41:05;9.40;99.90
16964;DHT22;8598;50.508;10.436;2022-10-23T07:43:32;10.20;99.90
16964;DHT22;8598;50.508;10.436;2022-10-23T07:46:00;10.70;99.90
16964;DHT22;8598;50.508;10.436;2022-10-23T07:48:29;9.70;99.90
16964;DHT22;8598;50.508;10.436;2022-10-23T07:50:57;9.70;99.90
16964;DHT22;8598;50.508;10.436;2022-10-23T07:53:25;10.10;99.90
16964;DHT22;8598;50.508;10.436;2022-10-23T07:55:52;10.80;99.90
16964;DHT22;8598;50.508;10.436;2022-10-23T07:58:20;10.50;99.90
16964;DHT22;8598;50.508;10.436;2022-10-23T08:00:49;11.60;99.90
16964;DHT22;8598;50.508;10.436;2022-10-23T08:03:20;10.50;99.90
16964;DHT22;8598;50.508;10.436;2022-10-23T08:05:48;11.60;99.90
16964;DHT22;8598;50.508;10.436;2022-10-23T08:08:15;10.80;99.90
16964;DHT22;8598;50.508;10.436;2022-10-23T08:10:42;11.20;99.90
16964;DHT22;8598;50.508;10.436;2022-10-23T08:13:10;11.30;99.90
16964;DHT22;8598;50.508;10.436;2022-10-23T08:15:38;11.50;99.90
16964;DHT22;8598;50.508;10.436;2022-10-23T08:18:05;11.60;99.90
16964;DHT22;8598;50.508;10.436;2022-10-23T08:20:36;11.60;99.90
16964;DHT22;8598;50.508;10.436;2022-10-23T08:23:05;11.80;99.90
16964;DHT22;8598;50.508;10.436;2022-10-23T08:25:32;12.00;99.90
16964;DHT22;8598;50.508;10.436;2022-10-23T08:27:59;12.30;99.90
16964;DHT22;8598;50.508;10.436;2022-10-23T08:30:26;12.60;99.90
16964;DHT22;8598;50.508;10.436;2022-10-23T08:32:53;12.60;99.90
16964;DHT22;8598;50.508;10.436;2022-10-23T08:35:20;14.20;99.90
16964;DHT22;8598;50.508;10.436;2022-10-23T08:37:47;12.50;99.90
16964;DHT22;8598;50.508;10.436;2022-10-23T08:40:16;12.50;99.90
16964;DHT22;8598;50.508;10.436;2022-10-23T08:42:48;12.60;99.90
16964;DHT22;8598;50.508;10.436;2022-10-23T08:45:27;12.70;99.90
16964;DHT22;8598;50.508;10.436;2022-10-23T08:47:57;12.80;99.90
16964;DHT22;8598;50.508;10.436;2022-10-23T08:50:29;13.10;99.90
16964;DHT22;8598;50.508;10.436;2022-10-23T08:53:01;12.90;99.90
16964;DHT22;8598;50.508;10.436;2022-10-23T08:55:33;13.10;99.90
16964;DHT22;8598;50.508;10.436;2022-10-23T08:58:06;13.30;99.90
16964;DHT22;8598;50.508;10.436;2022-10-23T09:00:40;13.40;99.90
16964;DHT22;8598;50.508;10.436;2022-10-23T09:03:10;13.70;99.90
16964;DHT22;8598;50.508;10.436;2022-10-23T09:05:45;13.50;99.90
16964;DHT22;8598;50.508;10.436;2022-10-23T09:08:25;13.60;99.90
16964;DHT22;8598;50.508;10.436;2022-10-23T09:11:01;13.60;99.90
16964;DHT22;8598;50.508;10.436;2022-10-23T09:13:54;13.50;99.90
16964;DHT22;8598;50.508;10.436;2022-10-23T09:16:34;13.70;99.90
16964;DHT22;8598;50.508;10.436;2022-10-23T09:19:11;14.20;99.90
16964;DHT22;8598;50.508;10.436;2022-10-23T09:21:40;13.80;99.90
16964;DHT22;8598;50.508;10.436;2022-10-23T09:24:13;14.70;99.90
16964;DHT22;8598;50.508;10.436;2022-10-23T09:26:43;14.20;99.90
16964;DHT22;8598;50.508;10.436;2022-10-23T09:29:21;14.60;99.90
16964;DHT22;8598;50.508;10.436;2022-10-23T09:31:50;14.10;99.90
16964;DHT22;8598;50.508;10.436;2022-10-23T09:34:19;14.90;99.90
16964;DHT22;8598;50.508;10.436;2022-10-23T09:36:51;14.00;99.90
16964;DHT22;8598;50.508;10.436;2022-10-23T09:39:25;14.40;99.90
16964;DHT22;8598;50.508;10.436;2022-10-23T09:41:53;15.50;99.90
16964;DHT22;8598;50.508;10.436;2022-10-23T09:44:22;16.20;99.90
16964;DHT22;8598;50.508;10.436;2022-10-23T09:46:51;14.80;99.90
16964;DHT22;8598;50.508;10.436;2022-10-23T09:49:21;14.60;99.90
16964;DHT22;8598;50.508;10.436;2022-10-23T09:51:55;15.70;99.90
16964;DHT22;8598;50.508;10.436;2022-10-23T09:54:24;15.00;99.90
16964;DHT22;8598;50.508;10.436;2022-10-23T09:56:54;14.90;99.90
16964;DHT22;8598;50.508;10.436;2022-10-23T09:59:24;15.00;99.90
16964;DHT22;8598;50.508;10.436;2022-10-23T10:01:54;15.10;99.90
16964;DHT22;8598;50.508;10.436;2022-10-23T10:04:31;15.10;99.90
16964;DHT22;8598;50.508;10.436;2022-10-23T10:06:59;15.10;99.90
16964;DHT22;8598;50.508;10.436;2022-10-23T10:09:27;15.10;99.90
16964;DHT22;8598;50.508;10.436;2022-10-23T10:12:01;15.20;99.90
16964;DHT22;8598;50.508;10.436;2022-10-23T10:14:41;15.20;99.90
16964;DHT22;8598;50.508;10.436;2022-10-23T10:17:16;15.90;99.90
16964;DHT22;8598;50.508;10.436;2022-10-23T10:22:43;15.60;99.90
16964;DHT22;8598;50.508;10.436;2022-10-23T10:25:16;15.70;99.90
16964;DHT22;8598;50.508;10.436;2022-10-23T10:27:55;15.80;99.90
16964;DHT22;8598;50.508;10.436;2022-10-23T10:30:29;15.70;99.90
16964;DHT22;8598;50.508;10.436;2022-10-23T10:33:05;16.50;99.90
16964;DHT22;8598;50.508;10.436;2022-10-23T10:35:39;17.20;99.90
16964;DHT22;8598;50.508;10.436;2022-10-23T10:38:19;16.00;99.90
16964;DHT22;8598;50.508;10.436;2022-10-23T10:41:05;17.10;99.90
16964;DHT22;8598;50.508;10.436;2022-10-23T10:43:45;16.80;99.90
16964;DHT22;8598;50.508;10.436;2022-10-23T10:46:19;16.40;99.90
16964;DHT22;8598;50.508;10.436;2022-10-23T10:48:57;17.90;99.90
16964;DHT22;8598;50.508;10.436;2022-10-23T10:51:29;15.60;99.90
16964;DHT22;8598;50.508;10.436;2022-10-23T10:54:09;15.70;99.90
16964;DHT22;8598;50.508;10.436;2022-10-23T10:56:42;15.80;99.90
16964;DHT22;8598;50.508;10.436;2022-10-23T10:59:16;15.90;99.90
16964;DHT22;8598;50.508;10.436;2022-10-23T11:01:51;17.90;99.90
16964;DHT22;8598;50.508;10.436;2022-10-23T11:04:28;17.50;99.90
16964;DHT22;8598;50.508;10.436;2022-10-23T11:06:57;16.30;99.90
16964;DHT22;8598;50.508;10.436;2022-10-23T11:09:27;15.40;99.90
16964;DHT22;8598;50.508;10.436;2022-10-23T11:11:56;16.80;99.90
16964;DHT22;8598;50.508;10.436;2022-10-23T11:14:27;17.60;99.90
16964;DHT22;8598;50.508;10.436;2022-10-23T11:16:58;17.30;99.90
16964;DHT22;8598;50.508;10.436;2022-10-23T11:19:29;16.50;99.90
16964;DHT22;8598;50.508;10.436;2022-10-23T11:22:03;15.50;99.90
16964;DHT22;8598;50.508;10.436;2022-10-23T11:24:55;17.50;99.90
16964;DHT22;8598;50.508;10.436;2022-10-23T11:27:56;16.70;99.90
16964;DHT22;8598;50.508;10.436;2022-10-23T11:30:33;16.80;99.90
16964;DHT22;8598;50.508;10.436;2022-10-23T11:33:38;17.30;99.90
16964;DHT22;8598;50.508;10.436;2022-10-23T11:36:16;16.90;99.90
16964;DHT22;8598;50.508;10.436;2022-10-23T11:38:45;17.00;99.90
16964;DHT22;8598;50.508;10.436;2022-10-23T11:41:25;16.90;99.90
16964;DHT22;8598;50.508;10.436;2022-10-23T11:43:55;17.50;99.90
16964;DHT22;8598;50.508;10.436;2022-10-23T11:46:32;17.00;99.90
16964;DHT22;8598;50.508;10.436;2022-10-23T11:49:00;18.00;99.90
16964;DHT22;8598;50.508;10.436;2022-10-23T11:51:29;18.20;99.90
16964;DHT22;8598;50.508;10.436;2022-10-23T11:54:18;17.40;99.90
16964;DHT22;8598;50.508;10.436;2022-10-23T11:57:00;17.10;99.90
16964;DHT22;8598;50.508;10.436;2022-10-23T11:59:31;17.10;99.90
16964;DHT22;8598;50.508;10.436;2022-10-23T12:02:02;17.00;99.90
16964;DHT22;8598;50.508;10.436;2022-10-23T12:04:38;17.00;99.90
16964;DHT22;8598;50.508;10.436;2022-10-23T12:07:15;17.10;99.90
16964;DHT22;8598;50.508;10.436;2022-10-23T12:09:54;18.50;99.90
16964;DHT22;8598;50.508;10.436;2022-10-23T12:12:27;18.60;99.90
16964;DHT22;8598;50.508;10.436;2022-10-23T12:15:16;16.50;99.90
16964;DHT22;8598;50.508;10.436;2022-10-23T12:17:47;17.00;99.90
16964;DHT22;8598;50.508;10.436;2022-10-23T12:20:37;18.00;99.90
16964;DHT22;8598;50.508;10.436;2022-10-23T12:23:32;17.20;99.90
16964;DHT22;8598;50.508;10.436;2022-10-23T12:26:13;16.70;99.90
16964;DHT22;8598;50.508;10.436;2022-10-23T12:28:49;17.40;99.90
16964;DHT22;8598;50.508;10.436;2022-10-23T12:31:27;17.50;99.90
16964;DHT22;8598;50.508;10.436;2022-10-23T12:34:03;17.60;99.90
16964;DHT22;8598;50.508;10.436;2022-10-23T12:36:44;18.60;99.90
16964;DHT22;8598;50.508;10.436;2022-10-23T12:39:25;18.70;99.90
16964;DHT22;8598;50.508;10.436;2022-10-23T12:41:52;18.80;99.90
16964;DHT22;8598;50.508;10.436;2022-10-23T12:44:20;18.60;99.90
16964;DHT22;8598;50.508;10.436;2022-10-23T12:46:50;18.40;99.90
16964;DHT22;8598;50.508;10.436;2022-10-23T12:49:22;16.90;99.90
16964;DHT22;8598;50.508;10.436;2022-10-23T12:51:57;17.90;99.90
16964;DHT22;8598;50.508;10.436;2022-10-23T12:54:25;16.70;99.90
16964;DHT22;8598;50.508;10.436;2022-10-23T12:56:53;17.10;99.90
16964;DHT22;8598;50.508;10.436;2022-10-23T12:59:22;17.70;99.90
16964;DHT22;8598;50.508;10.436;2022-10-23T13:01:52;16.80;99.90
16964;DHT22;8598;50.508;10.436;2022-10-23T13:04:27;17.20;99.90
16964;DHT22;8598;50.508;10.436;2022-10-23T13:06:55;17.90;99.90
16964;DHT22;8598;50.508;10.436;2022-10-23T13:09:27;17.80;99.90
16964;DHT22;8598;50.508;10.436;2022-10-23T13:11:55;16.60;99.90
16964;DHT22;8598;50.508;10.436;2022-10-23T13:14:32;16.50;99.90
16964;DHT22;8598;50.508;10.436;2022-10-23T13:17:01;17.90;99.90
16964;DHT22;8598;50.508;10.436;2022-10-23T13:19:30;17.20;99.90
16964;DHT22;8598;50.508;10.436;2022-10-23T13:21:58;16.70;99.90
16964;DHT22;8598;50.508;10.436;2022-10-23T13:24:26;17.50;99.90
16964;DHT22;8598;50.508;10.436;2022-10-23T13:26:54;16.90;99.90
16964;DHT22;8598;50.508;10.436;2022-10-23T13:29:25;16.90;99.90
16964;DHT22;8598;50.508;10.436;2022-10-23T13:31:53;16.70;99.90
16964;DHT22;8598;50.508;10.436;2022-10-23T13:34:25;17.10;99.90
16964;DHT22;8598;50.508;10.436;2022-10-23T13:36:59;16.90;99.90
16964;DHT22;8598;50.508;10.436;2022-10-23T13:39:28;16.90;99.90
16964;DHT22;8598;50.508;10.436;2022-10-23T13:41:57;16.90;99.90
16964;DHT22;8598;50.508;10.436;2022-10-23T13:44:26;16.90;99.90
16964;DHT22;8598;50.508;10.436;2022-10-23T13:46:53;16.80;99.90
16964;DHT22;8598;50.508;10.436;2022-10-23T13:49:21;16.70;99.90
16964;DHT22;8598;50.508;10.436;2022-10-23T13:51:50;16.80;99.90
16964;DHT22;8598;50.508;10.436;2022-10-23T13:54:20;17.40;99.90
16964;DHT22;8598;50.508;10.436;2022-10-23T13:56:48;18.00;99.90
16964;DHT22;8598;50.508;10.436;2022-10-23T13:59:15;17.10;99.90
16964;DHT22;8598;50.508;10.436;2022-10-23T14:01:43;16.80;99.90
16964;DHT22;8598;50.508;10.436;2022-10-23T14:04:10;17.50;99.90
16964;DHT22;8598;50.508;10.436;2022-10-23T14:06:37;16.90;99.90
16964;DHT22;8598;50.508;10.436;2022-10-23T14:09:06;16.90;99.90
16964;DHT22;8598;50.508;10.436;2022-10-23T14:11:34;17.00;99.90
16964;DHT22;8598;50.508;10.436;2022-10-23T14:14:01;17.30;99.90
16964;DHT22;8598;50.508;10.436;2022-10-23T14:16:28;17.10;99.90
16964;DHT22;8598;50.508;10.436;2022-10-23T14:18:55;17.20;99.90
16964;DHT22;8598;50.508;10.436;2022-10-23T14:21:23;17.10;99.90
16964;DHT22;8598;50.508;10.436;2022-10-23T14:23:51;17.00;99.90
16964;DHT22;8598;50.508;10.436;2022-10-23T14:26:20;18.40;99.90
16964;DHT22;8598;50.508;10.436;2022-10-23T14:28:51;18.40;99.90
16964;DHT22;8598;50.508;10.436;2022-10-23T14:31:18;17.10;99.90
16964;DHT22;8598;50.508;10.436;2022-10-23T14:33:45;17.10;99.90
16964;DHT22;8598;50.508;10.436;2022-10-23T14:36:16;17.90;99.90
16964;DHT22;8598;50.508;10.436;2022-10-23T14:38:42;16.90;99.90
16964;DHT22;8598;50.508;10.436;2022-10-23T14:41:11;16.90;99.90
16964;DHT22;8598;50.508;10.436;2022-10-23T14:43:37;16.80;99.90
16964;DHT22;8598;50.508;10.436;2022-10-23T14:46:10;18.00;99.90
16964;DHT22;8598;50.508;10.436;2022-10-23T14:48:37;17.30;99.90
16964;DHT22;8598;50.508;10.436;2022-10-23T14:51:05;17.10;99.90
16964;DHT22;8598;50.508;10.436;2022-10-23T14:53:32;16.60;99.90
16964;DHT22;8598;50.508;10.436;2022-10-23T14:56:03;16.70;99.90
16964;DHT22;8598;50.508;10.436;2022-10-23T14:58:30;16.50;99.90
16964;DHT22;8598;50.508;10.436;2022-10-23T15:00:57;16.40;99.90
16964;DHT22;8598;50.508;10.436;2022-10-23T15:03:25;16.50;99.90
16964;DHT22;8598;50.508;10.436;2022-10-23T15:05:52;16.80;99.90
16964;DHT22;8598;50.508;10.436;2022-10-23T15:08:21;16.20;99.90
16964;DHT22;8598;50.508;10.436;2022-10-23T15:10:48;17.20;99.90
16964;DHT22;8598;50.508;10.436;2022-10-23T15:13:15;16.10;99.90
16964;DHT22;8598;50.508;10.436;2022-10-23T15:15:42;16.00;99.90
16964;DHT22;8598;50.508;10.436;2022-10-23T15:18:09;16.00;99.90
16964;DHT22;8598;50.508;10.436;2022-10-23T15:20:37;15.90;99.90
16964;DHT22;8598;50.508;10.436;2022-10-23T15:23:04;17.40;99.90
16964;DHT22;8598;50.508;10.436;2022-10-23T15:25:31;15.80;99.90
16964;DHT22;8598;50.508;10.436;2022-10-23T15:27:58;15.80;99.90
16964;DHT22;8598;50.508;10.436;2022-10-23T15:30:25;15.60;99.90
16964;DHT22;8598;50.508;10.436;2022-10-23T15:32:52;15.60;99.90
16964;DHT22;8598;50.508;10.436;2022-10-23T15:35:19;16.40;99.90
16964;DHT22;8598;50.508;10.436;2022-10-23T15:37:47;16.00;99.90
16964;DHT22;8598;50.508;10.436;2022-10-23T15:40:14;15.40;99.90
16964;DHT22;8598;50.508;10.436;2022-10-23T15:42:41;15.40;99.90
16964;DHT22;8598;50.508;10.436;2022-10-23T15:45:09;17.00;99.90
16964;DHT22;8598;50.508;10.436;2022-10-23T15:47:38;15.30;99.90
16964;DHT22;8598;50.508;10.436;2022-10-23T15:50:06;16.90;99.90
16964;DHT22;8598;50.508;10.436;2022-10-23T15:52:33;15.10;99.90
16964;DHT22;8598;50.508;10.436;2022-10-23T15:55:01;16.20;99.90
16964;DHT22;8598;50.508;10.436;2022-10-23T15:57:28;15.60;99.90
16964;DHT22;8598;50.508;10.436;2022-10-23T15:59:55;16.50;99.90